createdAt,value
2024-03-25T00:00:38.632Z,1708.00
2024-03-25T00:01:38.673Z,1705.00
2024-03-25T00:02:38.732Z,1688.00
2024-03-25T00:03:38.768Z,1706.00
2024-03-25T00:04:38.833Z,1701.00
2024-03-25T00:05:38.887Z,1692.00
2024-03-25T00:06:38.941Z,1695.00
2024-03-25T00:07:38.996Z,1698.00
2024-03-25T00:08:39.034Z,1689.00
2024-03-25T00:09:39.106Z,1694.00
2024-03-25T00:10:39.171Z,1690.00
2024-03-25T00:11:39.194Z,1688.00
2024-03-25T00:12:39.255Z,1690.00
2024-03-25T00:13:39.324Z,1693.00
2024-03-25T00:14:39.364Z,1695.00
2024-03-25T00:15:39.403Z,1721.00
2024-03-25T00:16:39.445Z,1702.00
2024-03-25T00:17:39.475Z,1699.00
2024-03-25T00:18:39.539Z,1698.00
2024-03-25T00:19:39.590Z,1693.00
2024-03-25T00:20:39.626Z,1712.00
2024-03-25T00:21:39.664Z,1704.00
2024-03-25T00:22:39.718Z,1697.00
2024-03-25T00:23:39.769Z,1697.00
2024-03-25T00:24:39.815Z,1691.00
2024-03-25T00:25:39.853Z,1701.00
2024-03-25T00:26:39.908Z,1697.00
2024-03-25T00:27:39.966Z,1697.00
2024-03-25T00:28:40.008Z,1699.00
2024-03-25T00:29:40.048Z,1700.00
2024-03-25T00:30:40.090Z,1698.00
2024-03-25T00:31:40.133Z,1706.00
2024-03-25T00:32:40.178Z,1702.00
2024-03-25T00:33:40.246Z,1706.00
2024-03-25T00:34:40.275Z,1703.00
2024-03-25T00:35:40.336Z,1690.00
2024-03-25T00:36:40.388Z,1705.00
2024-03-25T00:37:40.429Z,1691.00
2024-03-25T00:38:40.489Z,1691.00
2024-03-25T00:39:40.802Z,1690.00
2024-03-25T00:40:40.548Z,1690.00
2024-03-25T00:41:40.600Z,1681.00
2024-03-25T00:42:40.669Z,1680.00
2024-03-25T00:43:40.701Z,1673.00
2024-03-25T00:44:40.767Z,1683.00
2024-03-25T00:45:40.794Z,1686.00
2024-03-25T00:46:40.849Z,1675.00
2024-03-25T00:47:40.877Z,1676.00
2024-03-25T00:48:40.931Z,1674.00
2024-03-25T00:49:40.998Z,1661.00
2024-03-25T00:50:41.029Z,1677.00
2024-03-25T00:51:41.103Z,1678.00
2024-03-25T00:52:41.125Z,1664.00
2024-03-25T00:53:41.178Z,1663.00
2024-03-25T00:54:41.230Z,1665.00
2024-03-25T00:55:41.264Z,1659.00
2024-03-25T00:56:41.332Z,1653.00
2024-03-25T00:57:41.366Z,1641.00
2024-03-25T00:58:41.460Z,1644.00
2024-03-25T00:59:41.453Z,1638.00
2024-03-25T01:00:41.486Z,1635.00
2024-03-25T01:01:41.537Z,1641.00
2024-03-25T01:02:41.608Z,1631.00
2024-03-25T01:03:41.621Z,1646.00
2024-03-25T01:04:41.683Z,1618.00
2024-03-25T01:05:41.758Z,1613.00
2024-03-25T01:06:41.784Z,1601.00
2024-03-25T01:07:41.827Z,1598.00
2024-03-25T01:08:42.835Z,1575.00
2024-03-25T01:09:41.929Z,1566.00
2024-03-25T01:10:41.976Z,1558.00
2024-03-25T01:11:41.998Z,1541.00
2024-03-25T01:12:42.046Z,1534.00
2024-03-25T01:13:42.085Z,1532.00
2024-03-25T01:14:42.139Z,1514.00
2024-03-25T01:15:42.182Z,1511.00
2024-03-25T01:16:42.241Z,1505.00
2024-03-25T01:17:42.277Z,1508.00
2024-03-25T01:18:42.310Z,1506.00
2024-03-25T01:19:42.385Z,1478.00
2024-03-25T01:20:42.405Z,1489.00
2024-03-25T01:21:42.440Z,1486.00
2024-03-25T01:22:42.536Z,1482.00
2024-03-25T01:23:42.518Z,1476.00
2024-03-25T01:24:42.574Z,1484.00
2024-03-25T01:25:42.607Z,1474.00
2024-03-25T01:26:42.681Z,1472.00
2024-03-25T01:27:42.690Z,1460.00
2024-03-25T01:28:42.746Z,1464.00
2024-03-25T01:29:42.817Z,1456.00
2024-03-25T01:30:42.834Z,1464.00
2024-03-25T01:31:42.868Z,1463.00
2024-03-25T01:32:42.924Z,1472.00
2024-03-25T01:33:42.970Z,1466.00
2024-03-25T01:34:43.001Z,1463.00
2024-03-25T01:35:43.069Z,1471.00
2024-03-25T01:36:43.116Z,1470.00
2024-03-25T01:37:43.148Z,1468.00
2024-03-25T01:38:43.211Z,1473.00
2024-03-25T01:39:43.244Z,1478.00
2024-03-25T01:40:43.300Z,1473.00
2024-03-25T01:41:43.351Z,1485.00
2024-03-25T01:42:43.390Z,1487.00
2024-03-25T01:43:43.431Z,1486.00
2024-03-25T01:44:43.495Z,1486.00
2024-03-25T01:45:43.544Z,1492.00
2024-03-25T01:46:43.576Z,1504.00
2024-03-25T01:47:43.640Z,1508.00
2024-03-25T01:48:43.674Z,1501.00
2024-03-25T01:49:43.712Z,1517.00
2024-03-25T01:50:43.774Z,1521.00
2024-03-25T01:51:43.844Z,1528.00
2024-03-25T01:52:43.858Z,1521.00
2024-03-25T01:53:43.919Z,1524.00
2024-03-25T01:54:43.964Z,1534.00
2024-03-25T01:55:44.024Z,1539.00
2024-03-25T01:56:44.064Z,1529.00
2024-03-25T01:57:44.121Z,1536.00
2024-03-25T01:58:44.160Z,1540.00
2024-03-25T01:59:44.210Z,1546.00
2024-03-25T02:00:44.267Z,1546.00
2024-03-25T02:01:44.305Z,1551.00
2024-03-25T02:02:44.348Z,1549.00
2024-03-25T02:03:44.404Z,1546.00
2024-03-25T02:04:44.455Z,1559.00
2024-03-25T02:05:44.529Z,1554.00
2024-03-25T02:06:44.557Z,1565.00
2024-03-25T02:07:44.595Z,1556.00
2024-03-25T02:08:44.626Z,1567.00
2024-03-25T02:09:44.682Z,1562.00
2024-03-25T02:10:44.755Z,1560.00
2024-03-25T02:11:44.770Z,1569.00
2024-03-25T02:12:44.808Z,1568.00
2024-03-25T02:13:44.870Z,1575.00
2024-03-25T02:14:44.914Z,1582.00
2024-03-25T02:15:44.973Z,1569.00
2024-03-25T02:16:45.019Z,1574.00
2024-03-25T02:17:45.054Z,1564.00
2024-03-25T02:18:45.118Z,1576.00
2024-03-25T02:19:45.153Z,1581.00
2024-03-25T02:20:45.215Z,1572.00
2024-03-25T02:21:45.274Z,1572.00
2024-03-25T02:22:45.295Z,1558.00
2024-03-25T02:23:45.343Z,1571.00
2024-03-25T02:24:45.392Z,1577.00
2024-03-25T02:25:45.465Z,1572.00
2024-03-25T02:26:45.470Z,1586.00
2024-03-25T02:27:45.519Z,1573.00
2024-03-25T02:28:45.587Z,1579.00
2024-03-25T02:29:45.621Z,1574.00
2024-03-25T02:30:45.672Z,1585.00
2024-03-25T02:31:45.722Z,1581.00
2024-03-25T02:32:45.764Z,1578.00
2024-03-25T02:33:45.878Z,1577.00
2024-03-25T02:34:45.959Z,1575.00
2024-03-25T02:35:45.903Z,1579.00
2024-03-25T02:36:45.962Z,1580.00
2024-03-25T02:37:46.005Z,1567.00
2024-03-25T02:38:46.070Z,1579.00
2024-03-25T02:39:46.111Z,1579.00
2024-03-25T02:40:46.167Z,1570.00
2024-03-25T02:41:46.217Z,1583.00
2024-03-25T02:42:46.284Z,1565.00
2024-03-25T02:43:46.352Z,1571.00
2024-03-25T02:44:46.379Z,1568.00
2024-03-25T02:45:46.411Z,1570.00
2024-03-25T02:46:46.461Z,1562.00
2024-03-25T02:47:46.509Z,1568.00
2024-03-25T02:48:46.599Z,1575.00
2024-03-25T02:49:46.642Z,1565.00
2024-03-25T02:50:46.665Z,1568.00
2024-03-25T02:51:46.714Z,1576.00
2024-03-25T02:52:46.757Z,1568.00
2024-03-25T02:53:46.810Z,1571.00
2024-03-25T02:54:46.890Z,1564.00
2024-03-25T02:55:46.959Z,1563.00
2024-03-25T02:56:47.010Z,1566.00
2024-03-25T02:57:47.033Z,1572.00
2024-03-25T02:58:47.078Z,1563.00
2024-03-25T02:59:47.121Z,1570.00
2024-03-25T03:00:47.164Z,1581.00
2024-03-25T03:01:47.214Z,1573.00
2024-03-25T03:02:47.284Z,1570.00
2024-03-25T03:03:47.310Z,1569.00
2024-03-25T03:04:47.364Z,1565.00
2024-03-25T03:05:47.380Z,1565.00
2024-03-25T03:06:47.370Z,1565.00
2024-03-25T03:07:47.379Z,1567.00
2024-03-25T03:08:47.368Z,1563.00
2024-03-25T03:09:47.383Z,1571.00
2024-03-25T03:10:47.382Z,1558.00
2024-03-25T03:11:47.376Z,1570.00
2024-03-25T03:12:47.381Z,1556.00
2024-03-25T03:13:47.387Z,1559.00
2024-03-25T03:14:47.389Z,1556.00
2024-03-25T03:15:47.383Z,1562.00
2024-03-25T03:16:47.416Z,1551.00
2024-03-25T03:17:47.462Z,1553.00
2024-03-25T03:18:47.544Z,1559.00
2024-03-25T03:19:47.602Z,1554.00
2024-03-25T03:20:47.634Z,1552.00
2024-03-25T03:21:47.662Z,1556.00
2024-03-25T03:22:47.712Z,1547.00
2024-03-25T03:23:47.779Z,1542.00
2024-03-25T03:24:47.838Z,1540.00
2024-03-25T03:25:47.867Z,1531.00
2024-03-25T03:26:47.911Z,1531.00
2024-03-25T03:27:47.958Z,1542.00
2024-03-25T03:28:48.023Z,1538.00
2024-03-25T03:29:48.080Z,1534.00
2024-03-25T03:30:48.114Z,1522.00
2024-03-25T03:31:48.155Z,1516.00
2024-03-25T03:32:48.203Z,1521.00
2024-03-25T03:33:48.275Z,1511.00
2024-03-25T03:34:48.331Z,1507.00
2024-03-25T03:35:48.359Z,1498.00
2024-03-25T03:36:48.405Z,1501.00
2024-03-25T03:37:48.447Z,1506.00
2024-03-25T03:38:48.518Z,1486.00
2024-03-25T03:39:48.562Z,1491.00
2024-03-25T03:40:48.617Z,1483.00
2024-03-25T03:41:48.655Z,1478.00
2024-03-25T03:42:48.694Z,1474.00
2024-03-25T03:43:48.764Z,1474.00
2024-03-25T03:44:48.811Z,1466.00
2024-03-25T03:45:48.844Z,1462.00
2024-03-25T03:46:48.904Z,1454.00
2024-03-25T03:47:48.951Z,1464.00
2024-03-25T03:48:49.017Z,1461.00
2024-03-25T03:49:49.067Z,1458.00
2024-03-25T03:50:49.114Z,1458.00
2024-03-25T03:51:49.138Z,1464.00
2024-03-25T03:52:49.204Z,1458.00
2024-03-25T03:53:49.265Z,1454.00
2024-03-25T03:54:49.308Z,1453.00
2024-03-25T03:55:49.356Z,1460.00
2024-03-25T03:56:49.421Z,1462.00
2024-03-25T03:57:49.460Z,1461.00
2024-03-25T03:58:49.537Z,1457.00
2024-03-25T03:59:49.582Z,1469.00
2024-03-25T04:00:49.604Z,1467.00
2024-03-25T04:01:49.658Z,1476.00
2024-03-25T04:02:49.727Z,1467.00
2024-03-25T04:03:49.790Z,1475.00
2024-03-25T04:04:49.847Z,1476.00
2024-03-25T04:05:49.926Z,1478.00
2024-03-25T04:06:49.959Z,1493.00
2024-03-25T04:07:50.035Z,1492.00
2024-03-25T04:08:50.076Z,1496.00
2024-03-25T04:09:50.116Z,1508.00
2024-03-25T04:10:50.182Z,1510.00
2024-03-25T04:11:50.250Z,1508.00
2024-03-25T04:12:50.303Z,1517.00
2024-03-25T04:13:50.396Z,1515.00
2024-03-25T04:14:50.417Z,1531.00
2024-03-25T04:15:50.516Z,1533.00
2024-03-25T04:16:50.533Z,1537.00
2024-03-25T04:17:50.589Z,1535.00
2024-03-25T04:18:50.662Z,1542.00
2024-03-25T04:19:50.704Z,1545.00
2024-03-25T04:20:50.775Z,1542.00
2024-03-25T04:21:50.822Z,1572.00
2024-03-25T04:22:50.884Z,1561.00
2024-03-25T04:23:50.935Z,1561.00
2024-03-25T04:24:50.984Z,1573.00
2024-03-25T04:25:51.053Z,1574.00
2024-03-25T04:26:51.109Z,1573.00
2024-03-25T04:27:51.172Z,1583.00
2024-03-25T04:28:51.208Z,1594.00
2024-03-25T04:29:51.272Z,1601.00
2024-03-25T04:30:51.322Z,1598.00
2024-03-25T04:31:51.411Z,1592.00
2024-03-25T04:32:51.456Z,1610.00
2024-03-25T04:33:51.499Z,1603.00
2024-03-25T04:34:51.557Z,1608.00
2024-03-25T04:35:51.638Z,1611.00
2024-03-25T04:36:51.681Z,1622.00
2024-03-25T04:37:51.722Z,1629.00
2024-03-25T04:38:51.801Z,1622.00
2024-03-25T04:39:51.833Z,1630.00
2024-03-25T04:40:51.886Z,1619.00
2024-03-25T04:41:51.972Z,1630.00
2024-03-25T04:42:52.004Z,1635.00
2024-03-25T04:43:52.074Z,1633.00
2024-03-25T04:44:52.134Z,1645.00
2024-03-25T04:45:52.152Z,1648.00
2024-03-25T04:46:52.249Z,1645.00
2024-03-25T04:47:52.281Z,1653.00
2024-03-25T04:48:52.348Z,1651.00
2024-03-25T04:49:52.388Z,1657.00
2024-03-25T04:50:59.693Z,600.00
2024-03-25T04:51:59.722Z,600.00
2024-03-25T04:52:59.732Z,600.00
2024-03-25T04:53:59.704Z,600.00
2024-03-25T04:54:59.719Z,600.00
2024-03-25T04:55:59.723Z,603.00
2024-03-25T04:56:59.717Z,607.00
2024-03-25T04:57:59.705Z,603.00
2024-03-25T04:58:59.715Z,602.00
2024-03-25T04:59:59.708Z,605.00
2024-03-25T05:00:59.715Z,611.00
2024-03-25T05:01:59.786Z,610.00
2024-03-25T05:02:59.725Z,608.00
2024-03-25T05:04:01.014Z,611.00
2024-03-25T05:04:59.743Z,616.00
2024-03-25T05:05:59.715Z,615.00
2024-03-25T05:06:59.721Z,613.00
2024-03-25T05:07:59.713Z,622.00
2024-03-25T05:08:59.728Z,620.00
2024-03-25T05:09:59.721Z,618.00
2024-03-25T05:10:59.793Z,621.00
2024-03-25T05:11:59.803Z,620.00
2024-03-25T05:12:59.874Z,618.00
2024-03-25T05:13:59.910Z,618.00
2024-03-25T05:14:59.931Z,618.00
2024-03-25T05:15:59.964Z,622.00
2024-03-25T05:17:00.023Z,621.00
2024-03-25T05:18:00.052Z,618.00
2024-03-25T05:19:00.091Z,621.00
2024-03-25T05:20:00.180Z,624.00
2024-03-25T05:21:00.180Z,616.00
2024-03-25T05:22:00.209Z,617.00
2024-03-25T05:23:00.276Z,619.00
2024-03-25T05:24:00.284Z,624.00
2024-03-25T05:25:00.336Z,624.00
2024-03-25T05:26:00.392Z,622.00
2024-03-25T05:27:00.448Z,625.00
2024-03-25T05:28:00.451Z,627.00
2024-03-25T05:29:00.492Z,631.00
2024-03-25T05:30:01.474Z,631.00
2024-03-25T05:31:00.557Z,629.00
2024-03-25T05:32:00.619Z,633.00
2024-03-25T05:33:00.636Z,631.00
2024-03-25T05:34:00.664Z,633.00
2024-03-25T05:35:00.717Z,634.00
2024-03-25T05:36:00.748Z,632.00
2024-03-25T05:37:00.789Z,636.00
2024-03-25T05:38:00.847Z,634.00
2024-03-25T05:39:00.873Z,635.00
2024-03-25T05:40:00.916Z,633.00
2024-03-25T05:41:00.965Z,634.00
2024-03-25T05:42:00.970Z,634.00
2024-03-25T05:43:01.014Z,638.00
2024-03-25T05:44:01.071Z,635.00
2024-03-25T05:45:01.099Z,631.00
2024-03-25T05:46:01.130Z,632.00
2024-03-25T05:47:01.168Z,630.00
2024-03-25T05:48:01.237Z,630.00
2024-03-25T05:49:01.247Z,634.00
2024-03-25T05:50:01.327Z,629.00
2024-03-25T05:51:01.331Z,630.00
2024-03-25T05:52:01.378Z,630.00
2024-03-25T05:53:01.416Z,627.00
2024-03-25T05:54:01.451Z,625.00
2024-03-25T05:55:01.492Z,626.00
2024-03-25T05:56:01.589Z,626.00
2024-03-25T05:57:01.601Z,621.00
2024-03-25T05:58:01.602Z,618.00
2024-03-25T05:59:01.703Z,618.00
2024-03-25T06:00:01.690Z,620.00
2024-03-25T06:01:01.726Z,619.00
2024-03-25T06:02:01.773Z,622.00
2024-03-25T06:03:01.797Z,623.00
2024-03-25T06:04:01.835Z,622.00
2024-03-25T06:05:01.918Z,618.00
2024-03-25T06:06:01.910Z,618.00
2024-03-25T06:07:01.943Z,620.00
2024-03-25T06:08:02.041Z,621.00
2024-03-25T06:09:02.050Z,619.00
2024-03-25T06:10:02.103Z,623.00
2024-03-25T06:11:02.126Z,617.00
2024-03-25T06:12:02.171Z,620.00
2024-03-25T06:13:02.236Z,620.00
2024-03-25T06:14:02.315Z,626.00
2024-03-25T06:15:02.316Z,627.00
2024-03-25T06:16:02.369Z,626.00
2024-03-25T06:17:02.438Z,627.00
2024-03-25T06:18:02.471Z,630.00
2024-03-25T06:19:02.531Z,634.00
2024-03-25T06:20:02.606Z,635.00
2024-03-25T06:21:02.628Z,636.00
2024-03-25T06:22:02.676Z,636.00
2024-03-25T06:23:02.751Z,639.00
2024-03-25T06:24:02.778Z,640.00
2024-03-25T06:25:02.809Z,646.00
2024-03-25T06:26:02.861Z,642.00
2024-03-25T06:27:02.895Z,643.00
2024-03-25T06:28:02.935Z,649.00
2024-03-25T06:29:03.015Z,652.00
2024-03-25T06:30:03.039Z,655.00
2024-03-25T06:31:03.075Z,655.00
2024-03-25T06:32:03.145Z,661.00
2024-03-25T06:33:03.176Z,662.00
2024-03-25T06:34:03.243Z,673.00
2024-03-25T06:35:03.264Z,665.00
2024-03-25T06:36:03.340Z,679.00
2024-03-25T06:37:03.407Z,681.00
2024-03-25T06:38:03.396Z,682.00
2024-03-25T06:39:03.437Z,708.00
2024-03-25T06:40:03.482Z,705.00
2024-03-25T06:41:03.535Z,691.00
2024-03-25T06:42:03.592Z,710.00
2024-03-25T06:43:03.591Z,717.00
2024-03-25T06:44:03.702Z,724.00
2024-03-25T06:45:03.672Z,738.00
2024-03-25T06:46:03.731Z,735.00
2024-03-25T06:47:03.760Z,737.00
2024-03-25T06:48:03.803Z,747.00
2024-03-25T06:49:03.808Z,751.00
2024-03-25T06:50:04.851Z,745.00
2024-03-25T06:51:03.888Z,761.00
2024-03-25T06:52:03.920Z,759.00
2024-03-25T06:53:03.962Z,765.00
2024-03-25T06:54:03.969Z,756.00
2024-03-25T06:55:04.023Z,769.00
2024-03-25T06:56:04.083Z,764.00
2024-03-25T06:57:04.072Z,765.00
2024-03-25T06:58:04.115Z,760.00
2024-03-25T06:59:04.160Z,766.00
2024-03-25T07:00:04.166Z,761.00
2024-03-25T07:01:04.212Z,759.00
2024-03-25T07:02:04.315Z,755.00
2024-03-25T07:03:04.276Z,755.00
2024-03-25T07:04:04.328Z,763.00
2024-03-25T07:05:04.372Z,759.00
2024-03-25T07:06:04.375Z,764.00
2024-03-25T07:07:04.399Z,763.00
2024-03-25T07:08:04.442Z,753.00
2024-03-25T07:09:04.479Z,759.00
2024-03-25T07:10:04.497Z,756.00
2024-03-25T07:11:04.561Z,768.00
2024-03-25T07:12:04.551Z,753.00
2024-03-25T07:13:04.603Z,760.00
2024-03-25T07:14:04.621Z,752.00
2024-03-25T07:15:04.852Z,754.00
2024-03-25T07:16:04.672Z,756.00
2024-03-25T07:17:04.703Z,764.00
2024-03-25T07:18:04.727Z,756.00
2024-03-25T07:19:04.762Z,761.00
2024-03-25T07:20:04.814Z,754.00
2024-03-25T07:21:04.829Z,758.00
2024-03-25T07:22:04.872Z,737.00
2024-03-25T07:23:04.899Z,734.00
2024-03-25T07:24:04.923Z,725.00
2024-03-25T07:25:04.949Z,712.00
2024-03-25T07:26:04.987Z,710.00
2024-03-25T07:27:05.007Z,694.00
2024-03-25T07:28:05.034Z,687.00
2024-03-25T07:29:05.079Z,681.00
2024-03-25T07:30:05.374Z,679.00
2024-03-25T07:31:05.139Z,666.00
2024-03-25T07:32:05.195Z,661.00
2024-03-25T07:33:05.186Z,654.00
2024-03-25T07:34:05.216Z,652.00
2024-03-25T07:35:05.271Z,647.00
2024-03-25T07:36:05.290Z,645.00
2024-03-25T07:37:05.331Z,642.00
2024-03-25T07:38:05.377Z,639.00
2024-03-25T07:39:05.372Z,635.00
2024-03-25T07:40:05.444Z,632.00
2024-03-25T07:41:05.602Z,627.00
2024-03-25T07:42:05.454Z,620.00
2024-03-25T07:43:05.487Z,620.00
2024-03-25T07:44:05.538Z,614.00
2024-03-25T07:45:05.541Z,613.00
2024-03-25T07:46:05.581Z,614.00
2024-03-25T07:47:05.607Z,608.00
2024-03-25T07:48:05.644Z,608.00
2024-03-25T07:49:05.682Z,605.00
2024-03-25T07:50:05.747Z,603.00
2024-03-25T07:51:05.741Z,601.00
2024-03-25T07:52:05.771Z,600.00
2024-03-25T07:53:05.816Z,600.00
2024-03-25T07:54:05.825Z,601.00
2024-03-25T07:55:05.881Z,604.00
2024-03-25T07:56:06.028Z,601.00
2024-03-25T07:57:05.929Z,601.00
2024-03-25T07:58:05.955Z,598.00
2024-03-25T07:59:05.988Z,600.00
2024-03-25T08:00:06.028Z,597.00
2024-03-25T08:01:06.102Z,590.00
2024-03-25T08:02:06.095Z,590.00
2024-03-25T08:03:06.177Z,603.00
2024-03-25T08:04:06.173Z,601.00
2024-03-25T08:05:06.221Z,599.00
2024-03-25T08:06:06.306Z,604.00
2024-03-25T08:07:06.279Z,603.00
2024-03-25T08:08:06.331Z,601.00
2024-03-25T08:09:06.346Z,602.00
2024-03-25T08:10:06.372Z,603.00
2024-03-25T08:11:06.396Z,603.00
2024-03-25T08:12:06.430Z,606.00
2024-03-25T08:13:06.484Z,604.00
2024-03-25T08:14:06.622Z,604.00
2024-03-25T08:15:06.523Z,606.00
2024-03-25T08:16:06.521Z,600.00
2024-03-25T08:17:06.567Z,604.00
2024-03-25T08:18:06.600Z,601.00
2024-03-25T08:19:06.610Z,607.00
2024-03-25T08:20:06.722Z,603.00
2024-03-25T08:21:06.778Z,605.00
2024-03-25T08:22:06.694Z,604.00
2024-03-25T08:23:06.959Z,602.00
2024-03-25T08:24:06.729Z,605.00
2024-03-25T08:25:06.751Z,600.00
2024-03-25T08:26:06.764Z,601.00
2024-03-25T08:27:06.831Z,603.00
2024-03-25T08:28:06.800Z,600.00
2024-03-25T08:29:06.868Z,605.00
2024-03-25T08:30:06.863Z,603.00
2024-03-25T08:31:06.891Z,605.00
2024-03-25T08:32:06.990Z,600.00
2024-03-25T08:33:06.959Z,603.00
2024-03-25T08:34:07.033Z,606.00
2024-03-25T08:35:07.061Z,602.00
2024-03-25T08:36:07.027Z,604.00
2024-03-25T08:37:07.124Z,604.00
2024-03-25T08:38:07.170Z,607.00
2024-03-25T08:39:07.838Z,607.00
2024-03-25T08:40:07.132Z,606.00
2024-03-25T08:41:07.210Z,603.00
2024-03-25T08:42:07.236Z,601.00
2024-03-25T08:43:07.203Z,605.00
2024-03-25T08:44:07.312Z,603.00
2024-03-25T08:45:07.259Z,601.00
2024-03-25T08:46:07.323Z,600.00
2024-03-25T08:47:07.309Z,606.00
2024-03-25T08:48:07.347Z,603.00
2024-03-25T08:49:07.370Z,605.00
2024-03-25T08:50:07.415Z,600.00
2024-03-25T08:51:07.425Z,600.00
2024-03-25T08:52:07.496Z,606.00
2024-03-25T08:53:07.483Z,609.00
2024-03-25T08:54:07.505Z,602.00
2024-03-25T08:55:07.567Z,602.00
2024-03-25T08:56:07.591Z,603.00
2024-03-25T08:57:07.623Z,602.00
2024-03-25T08:58:07.616Z,604.00
2024-03-25T08:59:07.625Z,603.00
2024-03-25T09:00:07.660Z,601.00
2024-03-25T09:01:07.694Z,601.00
2024-03-25T09:02:08.640Z,602.00
2024-03-25T09:03:07.776Z,604.00
2024-03-25T09:04:10.584Z,603.00
2024-03-25T09:05:08.780Z,603.00
2024-03-25T09:06:07.770Z,603.00
2024-03-25T09:07:07.758Z,599.00
2024-03-25T09:08:07.781Z,598.00
2024-03-25T09:09:07.764Z,601.00
2024-03-25T09:10:07.773Z,602.00
2024-03-25T09:11:07.884Z,604.00
2024-03-25T09:12:07.833Z,607.00
2024-03-25T09:13:07.839Z,606.00
2024-03-25T09:14:07.859Z,608.00
2024-03-25T09:15:07.783Z,610.00
2024-03-25T09:16:07.791Z,607.00
2024-03-25T09:17:07.783Z,606.00
2024-03-25T09:18:07.784Z,609.00
2024-03-25T09:19:07.788Z,609.00
2024-03-25T09:20:07.810Z,602.00
2024-03-25T09:21:07.800Z,605.00
2024-03-25T09:22:07.793Z,603.00
2024-03-25T09:23:07.799Z,600.00
2024-03-25T09:24:07.802Z,602.00
2024-03-25T09:25:07.862Z,602.00
2024-03-25T09:26:07.927Z,606.00
2024-03-25T09:27:07.798Z,608.00
2024-03-25T09:28:07.854Z,610.00
2024-03-25T09:29:07.789Z,607.00
2024-03-25T09:30:07.800Z,606.00
2024-03-25T09:31:07.880Z,607.00
2024-03-25T09:32:07.842Z,609.00
2024-03-25T09:33:07.847Z,603.00
2024-03-25T09:34:07.908Z,606.00
2024-03-25T09:35:07.961Z,601.00
2024-03-25T09:36:07.903Z,607.00
2024-03-25T09:37:07.924Z,608.00
2024-03-25T09:38:07.977Z,605.00
2024-03-25T09:39:07.966Z,611.00
2024-03-25T09:40:07.970Z,608.00
2024-03-25T09:41:07.996Z,609.00
2024-03-25T09:42:07.996Z,605.00
2024-03-25T09:43:08.008Z,602.00
2024-03-25T09:44:08.041Z,603.00
2024-03-25T09:45:08.055Z,603.00
2024-03-25T09:46:08.066Z,602.00
2024-03-25T09:47:08.099Z,607.00
2024-03-25T09:48:08.105Z,607.00
2024-03-25T09:49:08.137Z,604.00
2024-03-25T09:50:08.120Z,608.00
2024-03-25T09:51:08.143Z,612.00
2024-03-25T09:52:08.217Z,609.00
2024-03-25T09:53:08.170Z,606.00
2024-03-25T09:54:08.176Z,608.00
2024-03-25T09:55:08.221Z,612.00
2024-03-25T09:56:08.226Z,611.00
2024-03-25T09:57:08.212Z,613.00
2024-03-25T09:58:08.234Z,611.00
2024-03-25T09:59:08.253Z,610.00
2024-03-25T10:00:08.265Z,618.00
2024-03-25T10:01:08.270Z,614.00
2024-03-25T10:02:08.322Z,616.00
2024-03-25T10:03:08.391Z,615.00
2024-03-25T10:04:08.306Z,614.00
2024-03-25T10:05:08.332Z,617.00
2024-03-25T10:06:08.366Z,616.00
2024-03-25T10:07:08.366Z,622.00
2024-03-25T10:08:08.471Z,621.00
2024-03-25T10:09:08.375Z,626.00
2024-03-25T10:10:08.478Z,624.00
2024-03-25T10:11:08.452Z,629.00
2024-03-25T10:12:08.512Z,624.00
2024-03-25T10:13:08.492Z,629.00
2024-03-25T10:14:08.443Z,631.00
2024-03-25T10:15:08.469Z,634.00
2024-03-25T10:16:08.466Z,629.00
2024-03-25T10:17:08.545Z,634.00
2024-03-25T10:18:08.496Z,632.00
2024-03-25T10:19:08.500Z,634.00
2024-03-25T10:20:08.511Z,632.00
2024-03-25T10:21:08.514Z,633.00
2024-03-25T10:22:08.534Z,634.00
2024-03-25T10:23:08.545Z,632.00
2024-03-25T10:24:08.581Z,632.00
2024-03-25T10:25:08.571Z,630.00
2024-03-25T10:26:08.619Z,633.00
2024-03-25T10:27:08.581Z,634.00
2024-03-25T10:28:08.591Z,629.00
2024-03-25T10:29:08.607Z,631.00
2024-03-25T10:30:08.698Z,633.00
2024-03-25T10:31:08.643Z,632.00
2024-03-25T10:32:08.652Z,634.00
2024-03-25T10:33:08.699Z,630.00
2024-03-25T10:34:08.705Z,632.00
2024-03-25T10:35:08.763Z,634.00
2024-03-25T10:36:08.754Z,636.00
2024-03-25T10:37:08.777Z,639.00
2024-03-25T10:38:08.856Z,637.00
2024-03-25T10:39:08.875Z,633.00
2024-03-25T10:40:08.896Z,638.00
2024-03-25T10:41:08.865Z,640.00
2024-03-25T10:42:08.951Z,642.00
2024-03-25T10:43:08.895Z,635.00
2024-03-25T10:44:08.923Z,644.00
2024-03-25T10:45:08.939Z,643.00
2024-03-25T10:46:08.962Z,650.00
2024-03-25T10:47:08.962Z,651.00
2024-03-25T10:48:08.991Z,653.00
2024-03-25T10:49:08.993Z,651.00
2024-03-25T10:50:09.039Z,649.00
2024-03-25T10:51:09.017Z,651.00
2024-03-25T10:52:09.064Z,652.00
2024-03-25T10:53:09.048Z,657.00
2024-03-25T10:54:09.113Z,656.00
2024-03-25T10:55:09.085Z,655.00
2024-03-25T10:56:09.139Z,658.00
2024-03-25T10:57:09.101Z,663.00
2024-03-25T10:58:09.109Z,665.00
2024-03-25T10:59:09.207Z,662.00
2024-03-25T11:00:09.140Z,664.00
2024-03-25T11:01:09.218Z,686.00
2024-03-25T11:02:09.163Z,697.00
2024-03-25T11:03:09.181Z,705.00
2024-03-25T11:04:09.202Z,712.00
2024-03-25T11:05:09.201Z,716.00
2024-03-25T11:06:09.210Z,732.00
2024-03-25T11:07:09.219Z,732.00
2024-03-25T11:08:09.256Z,743.00
2024-03-25T11:09:09.241Z,750.00
2024-03-25T11:10:09.258Z,749.00
2024-03-25T11:11:09.279Z,758.00
2024-03-25T11:12:09.252Z,760.00
2024-03-25T11:13:09.263Z,758.00
2024-03-25T11:14:09.277Z,764.00
2024-03-25T11:15:09.322Z,772.00
2024-03-25T11:16:09.295Z,793.00
2024-03-25T11:17:09.323Z,805.00
2024-03-25T11:18:09.319Z,792.00
2024-03-25T11:19:09.319Z,804.00
2024-03-25T11:20:09.410Z,801.00
2024-03-25T11:21:09.331Z,805.00
2024-03-25T11:22:09.327Z,815.00
2024-03-25T11:23:09.343Z,815.00
2024-03-25T11:24:09.345Z,828.00
2024-03-25T11:25:09.368Z,825.00
2024-03-25T11:26:09.371Z,821.00
2024-03-25T11:27:09.418Z,808.00
2024-03-25T11:28:09.408Z,818.00
2024-03-25T11:29:09.410Z,819.00
2024-03-25T11:30:09.423Z,819.00
2024-03-25T11:31:09.431Z,819.00
2024-03-25T11:32:09.444Z,808.00
2024-03-25T11:33:09.441Z,805.00
2024-03-25T11:34:09.480Z,824.00
2024-03-25T11:35:09.461Z,812.00
2024-03-25T11:36:09.466Z,819.00
2024-03-25T11:37:09.488Z,800.00
2024-03-25T11:38:09.491Z,817.00
2024-03-25T11:39:09.512Z,831.00
2024-03-25T11:40:09.529Z,826.00
2024-03-25T11:41:09.527Z,837.00
2024-03-25T11:42:09.531Z,839.00
2024-03-25T11:43:09.535Z,857.00
2024-03-25T11:44:09.540Z,865.00
2024-03-25T11:45:09.546Z,864.00
2024-03-25T11:46:09.566Z,853.00
2024-03-25T11:47:09.569Z,866.00
2024-03-25T11:48:09.586Z,867.00
2024-03-25T11:49:09.575Z,856.00
2024-03-25T11:50:09.588Z,854.00
2024-03-25T11:51:09.591Z,856.00
2024-03-25T11:52:09.597Z,851.00
2024-03-25T11:53:09.606Z,849.00
2024-03-25T11:54:09.618Z,848.00
2024-03-25T11:55:09.638Z,862.00
2024-03-25T11:56:09.621Z,848.00
2024-03-25T11:57:09.643Z,847.00
2024-03-25T11:58:09.647Z,833.00
2024-03-25T11:59:09.678Z,850.00
2024-03-25T12:00:09.675Z,829.00
2024-03-25T12:01:09.676Z,828.00
2024-03-25T12:02:09.711Z,834.00
2024-03-25T12:03:09.714Z,821.00
2024-03-25T12:04:09.716Z,832.00
2024-03-25T12:05:09.759Z,820.00
2024-03-25T12:06:09.719Z,845.00
2024-03-25T12:07:09.737Z,836.00
2024-03-25T12:08:09.751Z,842.00
2024-03-25T12:09:09.748Z,829.00
2024-03-25T12:10:09.780Z,850.00
2024-03-25T12:11:09.811Z,828.00
2024-03-25T12:12:09.780Z,831.00
2024-03-25T12:13:09.786Z,834.00
2024-03-25T12:14:10.080Z,814.00
2024-03-25T12:15:09.796Z,832.00
2024-03-25T12:16:09.803Z,828.00
2024-03-25T12:17:09.816Z,824.00
2024-03-25T12:18:09.823Z,836.00
2024-03-25T12:19:09.830Z,821.00
2024-03-25T12:20:09.841Z,819.00